createdAt,value
2023-02-19T00:01:16.492Z,63.99
2023-02-19T00:03:43.935Z,63.99
2023-02-19T00:06:11.387Z,63.71
2023-02-19T00:08:39.048Z,63.92
2023-02-19T00:11:07.004Z,63.82
2023-02-19T00:13:37.927Z,63.93
2023-02-19T00:16:13.875Z,64.02
2023-02-19T00:18:40.972Z,63.95
2023-02-19T00:21:08.075Z,63.83
2023-02-19T00:23:35.188Z,63.82
2023-02-19T00:26:17.203Z,63.98
2023-02-19T00:28:45.481Z,63.86
2023-02-19T00:31:21.937Z,63.94
2023-02-19T00:33:49.676Z,63.93
2023-02-19T00:36:16.287Z,63.91
2023-02-19T00:38:43.807Z,63.83
2023-02-19T00:41:20.802Z,63.90
2023-02-19T00:43:56.572Z,63.76
2023-02-19T00:46:27.280Z,63.69
2023-02-19T00:48:54.517Z,63.65
2023-02-19T00:51:23.208Z,63.73
2023-02-19T00:53:49.926Z,63.76
2023-02-19T00:56:16.596Z,63.70
2023-02-19T00:58:43.176Z,63.79
2023-02-19T01:01:11.082Z,63.64
2023-02-19T01:03:39.158Z,63.74
2023-02-19T01:06:09.892Z,63.68
2023-02-19T01:08:36.873Z,63.56
2023-02-19T01:11:05.117Z,63.86
2023-02-19T01:13:32.124Z,63.95
2023-02-19T01:16:10.774Z,63.86
2023-02-19T01:18:37.495Z,63.97
2023-02-19T01:21:09.166Z,63.94
2023-02-19T01:23:36.468Z,63.96
2023-02-19T01:26:09.383Z,63.83
2023-02-19T01:28:36.221Z,63.82
2023-02-19T01:31:07.754Z,63.78
2023-02-19T01:33:37.423Z,63.78
2023-02-19T01:36:04.961Z,63.79
2023-02-19T01:38:31.858Z,63.75
2023-02-19T01:41:00.688Z,63.82
2023-02-19T01:43:30.085Z,63.83
2023-02-19T01:45:56.627Z,63.88
2023-02-19T01:48:26.154Z,63.73
2023-02-19T01:51:11.588Z,63.80
2023-02-19T01:53:42.248Z,63.73
2023-02-19T01:56:09.651Z,63.85
2023-02-19T01:58:37.255Z,63.87
2023-02-19T02:01:07.118Z,63.93
2023-02-19T02:03:34.942Z,64.02
2023-02-19T02:06:22.795Z,63.97
2023-02-19T02:09:13.975Z,64.02
2023-02-19T02:11:43.724Z,64.05
2023-02-19T02:14:10.426Z,64.01
2023-02-19T02:17:10.905Z,64.01
2023-02-19T02:19:59.382Z,64.04
2023-02-19T02:22:33.114Z,63.93
2023-02-19T02:25:12.897Z,63.90
2023-02-19T02:27:45.540Z,63.87
2023-02-19T02:30:15.178Z,63.82
2023-02-19T02:32:53.704Z,63.67
2023-02-19T02:35:23.925Z,63.66
2023-02-19T02:37:51.205Z,63.53
2023-02-19T02:40:18.823Z,63.56
2023-02-19T02:42:45.410Z,63.71
2023-02-19T02:45:36.297Z,63.52
2023-02-19T02:48:24.919Z,63.71
2023-02-19T02:51:06.856Z,63.42
2023-02-19T02:53:56.190Z,63.40
2023-02-19T02:56:24.984Z,63.42
2023-02-19T02:58:52.825Z,63.41
2023-02-19T03:01:44.642Z,63.41
2023-02-19T03:04:15.978Z,63.52
2023-02-19T03:06:43.760Z,63.62
2023-02-19T03:09:18.111Z,63.73
2023-02-19T03:12:05.769Z,63.71
2023-02-19T03:14:56.423Z,63.69
2023-02-19T03:17:49.122Z,63.67
2023-02-19T03:20:16.301Z,63.61
2023-02-19T03:22:43.551Z,63.72
2023-02-19T03:25:36.323Z,63.71
2023-02-19T03:28:04.609Z,63.72
2023-02-19T03:30:40.394Z,63.77
2023-02-19T03:33:12.338Z,63.69
2023-02-19T03:35:40.884Z,63.82
2023-02-19T03:38:18.636Z,63.71
2023-02-19T03:41:14.210Z,63.67
2023-02-19T03:43:45.482Z,63.71
2023-02-19T03:46:23.284Z,63.77
2023-02-19T03:48:59.641Z,63.73
2023-02-19T03:51:39.215Z,63.76
2023-02-19T03:54:11.858Z,63.76
2023-02-19T03:56:45.651Z,63.67
2023-02-19T03:59:19.151Z,63.69
2023-02-19T04:02:18.530Z,63.55
2023-02-19T04:04:52.143Z,63.54
2023-02-19T04:07:18.874Z,63.44
2023-02-19T04:09:48.822Z,63.14
2023-02-19T04:12:15.808Z,63.42
2023-02-19T04:14:46.535Z,63.36
2023-02-19T04:17:33.780Z,63.24
2023-02-19T04:20:01.067Z,63.27
2023-02-19T04:22:27.991Z,63.28
2023-02-19T04:24:55.640Z,63.28
2023-02-19T04:27:22.155Z,63.43
2023-02-19T04:29:48.676Z,63.41
2023-02-19T04:32:15.352Z,63.42
2023-02-19T04:34:41.939Z,63.48
2023-02-19T04:37:08.529Z,63.62
2023-02-19T04:39:35.106Z,63.73
2023-02-19T04:42:01.654Z,63.91
2023-02-19T04:44:28.594Z,63.89
2023-02-19T04:46:55.429Z,63.86
2023-02-19T04:49:21.995Z,64.01
2023-02-19T04:51:48.516Z,64.32
2023-02-19T04:54:15.148Z,64.25
2023-02-19T04:56:41.692Z,64.24
2023-02-19T04:59:08.278Z,64.49
2023-02-19T05:01:35.511Z,64.58
2023-02-19T05:04:02.173Z,64.53
2023-02-19T05:06:29.814Z,64.51
2023-02-19T05:08:56.354Z,64.75
2023-02-19T05:11:23.892Z,64.69
2023-02-19T05:13:50.580Z,64.61
2023-02-19T05:16:17.462Z,64.74
2023-02-19T05:18:45.643Z,64.86
2023-02-19T05:21:12.772Z,64.86
2023-02-19T05:23:39.553Z,65.09
2023-02-19T05:26:09.176Z,65.11
2023-02-19T05:28:36.065Z,65.24
2023-02-19T05:31:10.616Z,65.34
2023-02-19T05:33:38.095Z,65.29
2023-02-19T05:36:07.384Z,65.36
2023-02-19T05:38:33.999Z,65.43
2023-02-19T05:41:16.139Z,65.36
2023-02-19T05:43:43.246Z,65.43
2023-02-19T05:46:13.306Z,65.37
2023-02-19T05:48:39.963Z,65.37
2023-02-19T05:51:14.588Z,65.57
2023-02-19T05:53:42.033Z,65.44
2023-02-19T05:56:25.020Z,65.36
2023-02-19T05:58:51.823Z,65.32
2023-02-19T06:01:19.877Z,65.40
2023-02-19T06:03:46.579Z,65.37
2023-02-19T06:06:18.720Z,65.35
2023-02-19T06:08:46.077Z,65.42
2023-02-19T06:11:12.877Z,65.37
2023-02-19T06:13:39.619Z,65.32
2023-02-19T06:16:09.775Z,65.37
2023-02-19T06:18:36.854Z,65.34
2023-02-19T06:21:09.331Z,65.30
2023-02-19T06:23:36.054Z,65.27
2023-02-19T06:26:23.226Z,65.24
2023-02-19T06:28:51.766Z,65.20
2023-02-19T06:31:19.537Z,65.29
2023-02-19T06:33:46.694Z,65.26
2023-02-19T06:36:15.599Z,65.30
2023-02-19T06:38:42.389Z,65.25
2023-02-19T06:41:10.101Z,65.25
2023-02-19T06:43:37.201Z,65.34
2023-02-19T06:46:05.385Z,65.46
2023-02-19T06:48:33.129Z,65.71
2023-02-19T06:50:59.845Z,65.98
2023-02-19T06:53:26.690Z,66.08
2023-02-19T06:56:09.097Z,66.07
2023-02-19T06:58:35.663Z,66.06
2023-02-19T07:01:02.342Z,65.93
2023-02-19T07:03:28.958Z,65.72
2023-02-19T07:05:55.556Z,65.53
2023-02-19T07:08:22.201Z,65.33
2023-02-19T07:10:58.629Z,65.26
2023-02-19T07:13:26.874Z,65.14
2023-02-19T07:16:02.699Z,65.06
2023-02-19T07:18:29.836Z,65.09
2023-02-19T07:21:02.812Z,65.07
2023-02-19T07:23:29.341Z,64.99
2023-02-19T07:25:55.919Z,65.03
2023-02-19T07:28:26.618Z,64.99
2023-02-19T07:30:53.322Z,64.78
2023-02-19T07:33:20.037Z,64.90
2023-02-19T07:35:47.798Z,64.80
2023-02-19T07:38:18.309Z,64.77
2023-02-19T07:40:59.277Z,64.70
2023-02-19T07:43:27.549Z,64.58
2023-02-19T07:45:56.902Z,64.63
2023-02-19T07:48:23.859Z,64.63
2023-02-19T07:50:59.280Z,64.54
2023-02-19T07:53:27.109Z,64.42
2023-02-19T07:55:53.835Z,64.43
2023-02-19T07:58:20.465Z,64.40
2023-02-19T08:00:47.197Z,64.44
2023-02-19T08:03:13.825Z,64.35
2023-02-19T08:05:42.029Z,64.39
2023-02-19T08:08:10.534Z,64.25
2023-02-19T08:10:55.729Z,64.11
2023-02-19T08:13:23.235Z,64.07
2023-02-19T08:15:55.146Z,63.96
2023-02-19T08:18:27.344Z,63.97
2023-02-19T08:20:55.269Z,63.79
2023-02-19T08:23:22.604Z,63.93
2023-02-19T08:25:50.768Z,63.93
2023-02-19T08:28:17.876Z,63.76
2023-02-19T08:30:46.137Z,63.65
2023-02-19T08:33:14.895Z,63.82
2023-02-19T08:35:42.923Z,63.75
2023-02-19T08:38:11.189Z,63.69
2023-02-19T08:40:39.339Z,63.51
2023-02-19T08:43:14.135Z,63.68
2023-02-19T08:45:42.517Z,63.63
2023-02-19T08:48:09.767Z,63.45
2023-02-19T08:50:36.779Z,63.47
2023-02-19T08:53:04.476Z,63.13
2023-02-19T08:55:33.150Z,63.37
2023-02-19T08:57:59.945Z,63.31
2023-02-19T09:00:27.440Z,63.25
2023-02-19T09:02:53.973Z,63.18
2023-02-19T09:05:20.544Z,63.10
2023-02-19T09:07:47.088Z,63.09
2023-02-19T09:10:14.151Z,62.96
2023-02-19T09:12:40.931Z,62.89
2023-02-19T09:15:07.876Z,62.80
2023-02-19T09:17:34.554Z,62.68
2023-02-19T09:20:01.123Z,62.62
2023-02-19T09:22:27.686Z,62.55
2023-02-19T09:24:54.320Z,62.42
2023-02-19T09:27:21.344Z,62.48
2023-02-19T09:29:48.051Z,62.51
2023-02-19T09:32:14.742Z,62.28
2023-02-19T09:34:41.730Z,62.30
2023-02-19T09:37:08.699Z,62.07
2023-02-19T09:39:35.867Z,62.10
2023-02-19T09:42:17.640Z,62.16
2023-02-19T09:44:50.226Z,61.95
2023-02-19T09:47:25.015Z,62.01
2023-02-19T09:49:54.658Z,61.78
2023-02-19T09:52:40.121Z,61.71
2023-02-19T09:55:21.424Z,61.79
2023-02-19T09:57:48.759Z,61.53
2023-02-19T10:00:26.982Z,61.69
2023-02-19T10:03:34.474Z,61.57
2023-02-19T10:06:09.453Z,61.37
2023-02-19T10:08:38.060Z,61.56
2023-02-19T10:11:05.630Z,61.54
2023-02-19T10:13:35.874Z,61.15
2023-02-19T10:16:05.310Z,61.09
2023-02-19T10:18:38.480Z,61.03
2023-02-19T10:21:05.827Z,61.06
2023-02-19T10:23:32.746Z,61.13
2023-02-19T10:26:00.286Z,61.10
2023-02-19T10:28:36.588Z,60.98
2023-02-19T10:31:06.830Z,61.13
2023-02-19T10:33:33.345Z,61.02
2023-02-19T10:36:04.041Z,60.58
2023-02-19T10:38:34.580Z,60.61
2023-02-19T10:41:06.167Z,60.72
2023-02-19T10:43:37.178Z,60.67
2023-02-19T10:46:15.502Z,60.61
2023-02-19T10:48:47.106Z,60.42
2023-02-19T10:51:15.314Z,60.43
2023-02-19T10:53:49.888Z,60.43
2023-02-19T10:56:27.632Z,60.26
2023-02-19T10:58:55.187Z,60.17
2023-02-19T11:01:24.079Z,60.24
2023-02-19T11:04:09.968Z,59.95
2023-02-19T11:06:36.782Z,60.40
2023-02-19T11:09:03.418Z,60.58
2023-02-19T11:11:38.390Z,60.37
2023-02-19T11:14:15.863Z,60.34
2023-02-19T11:16:44.976Z,60.19
2023-02-19T11:19:30.487Z,60.30
2023-02-19T11:21:58.341Z,60.12
2023-02-19T11:24:37.547Z,59.95
2023-02-19T11:27:06.121Z,59.88
2023-02-19T11:29:35.549Z,59.85
2023-02-19T11:32:20.813Z,59.99
2023-02-19T11:34:48.187Z,59.67
2023-02-19T11:37:21.036Z,59.79
2023-02-19T11:39:48.908Z,59.71
2023-02-19T11:42:34.329Z,59.95
2023-02-19T11:45:14.774Z,59.96
2023-02-19T11:48:03.363Z,59.65
2023-02-19T11:50:52.776Z,59.50
2023-02-19T11:53:32.285Z,59.70
2023-02-19T11:56:33.958Z,59.87
2023-02-19T11:59:05.506Z,59.69
2023-02-19T12:01:35.033Z,59.50
2023-02-19T12:04:32.467Z,59.43
2023-02-19T12:07:18.452Z,59.56
2023-02-19T12:10:13.204Z,59.48
2023-02-19T12:13:04.777Z,59.90
2023-02-19T12:15:32.914Z,59.97
2023-02-19T12:18:19.038Z,60.22
2023-02-19T12:21:03.970Z,59.97
2023-02-19T12:23:49.120Z,59.97
2023-02-19T12:26:24.461Z,59.94
2023-02-19T12:29:19.216Z,60.28
2023-02-19T12:31:58.227Z,60.28
2023-02-19T12:34:46.673Z,60.17
2023-02-19T12:37:13.220Z,60.17
2023-02-19T12:40:17.100Z,60.23
2023-02-19T12:43:06.939Z,60.20
2023-02-19T12:45:36.090Z,60.30
2023-02-19T12:48:13.623Z,60.28
2023-02-19T12:50:40.773Z,60.14
2023-02-19T12:53:30.666Z,60.33
2023-02-19T12:55:57.644Z,60.32
2023-02-19T12:58:32.586Z,60.53
2023-02-19T13:00:59.920Z,60.40
2023-02-19T13:03:35.475Z,60.72
2023-02-19T13:06:26.759Z,60.87
2023-02-19T13:09:09.058Z,60.80
2023-02-19T13:11:59.951Z,61.14
2023-02-19T13:14:30.738Z,60.66
2023-02-19T13:17:08.742Z,60.65
2023-02-19T13:19:39.747Z,60.61
2023-02-19T13:22:42.997Z,60.72
2023-02-19T13:25:10.267Z,60.72
2023-02-19T13:27:42.416Z,60.67
2023-02-19T13:30:18.817Z,60.73
2023-02-19T13:32:58.939Z,60.62
2023-02-19T13:35:50.520Z,60.72
2023-02-19T13:38:17.307Z,60.41
2023-02-19T13:40:54.614Z,60.67
2023-02-19T13:43:39.055Z,60.65
2023-02-19T13:46:11.064Z,60.66
2023-02-19T13:48:40.532Z,60.51
2023-02-19T13:51:13.530Z,60.78
2023-02-19T13:53:45.888Z,60.64
2023-02-19T13:56:31.367Z,60.63
2023-02-19T13:59:38.063Z,60.53
2023-02-19T14:02:04.627Z,60.57
2023-02-19T14:04:42.354Z,60.87
2023-02-19T14:07:08.859Z,60.91
2023-02-19T14:09:40.989Z,60.85
2023-02-19T14:12:07.600Z,60.94
2023-02-19T14:14:40.840Z,61.24
2023-02-19T14:17:13.161Z,61.31
2023-02-19T14:19:42.505Z,61.48
2023-02-19T14:22:46.247Z,61.14
2023-02-19T14:25:30.818Z,61.55
2023-02-19T14:28:06.733Z,61.52
2023-02-19T14:30:35.409Z,61.44
2023-02-19T14:33:10.531Z,61.53
2023-02-19T14:35:43.398Z,61.95
2023-02-19T14:38:22.781Z,61.91
2023-02-19T14:40:50.203Z,62.27
2023-02-19T14:43:19.377Z,62.35
2023-02-19T14:45:53.988Z,62.24
2023-02-19T14:48:26.957Z,62.09
2023-02-19T14:50:58.233Z,62.37
2023-02-19T14:53:28.083Z,62.39
2023-02-19T14:55:55.322Z,62.42
2023-02-19T14:58:29.174Z,62.54
2023-02-19T15:00:55.874Z,62.73
2023-02-19T15:03:27.142Z,62.79
2023-02-19T15:05:59.598Z,62.54
2023-02-19T15:08:36.602Z,62.60
2023-02-19T15:11:04.764Z,62.85
2023-02-19T15:13:31.819Z,63.17
2023-02-19T15:15:58.517Z,63.19
2023-02-19T15:18:26.741Z,63.70
2023-02-19T15:21:04.645Z,63.76
2023-02-19T15:23:33.060Z,63.95
2023-02-19T15:26:00.850Z,64.08
2023-02-19T15:28:32.620Z,64.38
2023-02-19T15:30:59.113Z,64.55
2023-02-19T15:33:27.355Z,64.52
2023-02-19T15:35:58.506Z,64.49
2023-02-19T15:38:25.727Z,64.65
2023-02-19T15:40:53.431Z,64.64
2023-02-19T15:43:26.104Z,64.94
2023-02-19T15:45:56.598Z,64.63
2023-02-19T15:48:27.874Z,64.57
2023-02-19T15:51:02.922Z,64.69
2023-02-19T15:53:31.239Z,64.84
2023-02-19T15:56:32.693Z,65.02
2023-02-19T15:59:05.798Z,64.86
2023-02-19T16:01:41.703Z,64.88
2023-02-19T16:04:14.066Z,64.93
2023-02-19T16:06:52.704Z,65.14
2023-02-19T16:09:31.898Z,65.18
2023-02-19T16:12:00.462Z,65.28
2023-02-19T16:14:29.209Z,65.47
2023-02-19T16:17:01.430Z,65.37
2023-02-19T16:19:30.553Z,65.43
2023-02-19T16:21:58.216Z,65.47
2023-02-19T16:24:37.292Z,65.63
2023-02-19T16:27:04.635Z,65.40
2023-02-19T16:29:33.066Z,65.57
2023-02-19T16:32:02.560Z,65.72
2023-02-19T16:34:50.609Z,65.56
2023-02-19T16:37:34.272Z,65.59
2023-02-19T16:40:11.123Z,65.55
2023-02-19T16:43:06.734Z,65.71
2023-02-19T16:45:33.453Z,65.70
2023-02-19T16:48:00.501Z,65.74
2023-02-19T16:50:27.297Z,66.03
2023-02-19T16:52:59.159Z,66.16
2023-02-19T16:55:26.096Z,66.14
2023-02-19T16:57:52.894Z,66.07
2023-02-19T17:00:21.796Z,66.17
2023-02-19T17:02:50.314Z,66.23
2023-02-19T17:05:18.457Z,66.41
2023-02-19T17:07:45.047Z,66.38
2023-02-19T17:10:23.520Z,66.47
2023-02-19T17:12:54.420Z,66.55
2023-02-19T17:15:21.639Z,66.57
2023-02-19T17:17:48.441Z,66.55
2023-02-19T17:20:17.834Z,66.89
2023-02-19T17:22:44.650Z,66.91
2023-02-19T17:25:11.510Z,66.56
2023-02-19T17:27:40.565Z,66.71
2023-02-19T17:30:12.498Z,66.84
2023-02-19T17:32:39.049Z,66.84
2023-02-19T17:35:06.094Z,66.69
2023-02-19T17:37:32.670Z,66.66
2023-02-19T17:39:59.150Z,66.83
2023-02-19T17:42:25.933Z,66.70
2023-02-19T17:44:53.557Z,66.75
2023-02-19T17:47:21.331Z,66.81
2023-02-19T17:49:47.965Z,66.73
2023-02-19T17:52:17.590Z,66.81
2023-02-19T17:54:44.202Z,66.86
2023-02-19T17:57:10.751Z,66.77
2023-02-19T17:59:37.383Z,66.86
2023-02-19T18:02:04.042Z,67.02
2023-02-19T18:04:30.798Z,67.05
2023-02-19T18:06:57.681Z,67.15
2023-02-19T18:09:24.674Z,67.21
2023-02-19T18:11:51.225Z,67.03
2023-02-19T18:14:17.777Z,67.31
2023-02-19T18:16:50.117Z,67.34
2023-02-19T18:19:17.170Z,67.32
2023-02-19T18:21:43.650Z,67.35
2023-02-19T18:24:10.290Z,67.53
2023-02-19T18:26:36.882Z,67.78
2023-02-19T18:29:05.426Z,67.75
2023-02-19T18:31:33.185Z,67.94
2023-02-19T18:33:59.880Z,68.06
2023-02-19T18:36:26.486Z,68.27
2023-02-19T18:38:53.023Z,68.27
2023-02-19T18:41:21.208Z,68.37
2023-02-19T18:43:48.141Z,68.66
2023-02-19T18:46:15.148Z,68.67
2023-02-19T18:48:41.762Z,68.65
2023-02-19T18:51:11.912Z,68.74
2023-02-19T18:53:38.768Z,68.64
2023-02-19T18:56:05.684Z,68.69
2023-02-19T18:58:33.713Z,68.78
2023-02-19T19:01:00.288Z,68.80
2023-02-19T19:03:39.571Z,68.80
2023-02-19T19:06:06.262Z,68.69
2023-02-19T19:08:32.847Z,68.79
2023-02-19T19:11:00.938Z,68.83
2023-02-19T19:13:27.469Z,68.85
2023-02-19T19:15:54.173Z,68.94
2023-02-19T19:18:20.956Z,69.13
2023-02-19T19:20:47.726Z,69.05
2023-02-19T19:23:14.379Z,69.05
2023-02-19T19:25:40.919Z,69.11
2023-02-19T19:28:07.621Z,69.23
2023-02-19T19:30:34.336Z,69.07
2023-02-19T19:33:02.524Z,69.27
2023-02-19T19:35:29.662Z,69.24
2023-02-19T19:37:56.225Z,69.27
2023-02-19T19:40:22.856Z,69.24
2023-02-19T19:42:51.248Z,69.39
2023-02-19T19:45:18.256Z,69.26
2023-02-19T19:47:44.955Z,69.23
2023-02-19T19:50:13.260Z,69.22
2023-02-19T19:52:40.043Z,69.32
2023-02-19T19:55:07.205Z,69.18
2023-02-19T19:57:33.802Z,69.37
2023-02-19T20:00:01.168Z,69.43
2023-02-19T20:02:27.806Z,69.41
2023-02-19T20:04:54.506Z,69.52
2023-02-19T20:07:21.369Z,69.58
2023-02-19T20:09:49.540Z,69.26
2023-02-19T20:12:16.775Z,69.56
2023-02-19T20:14:45.666Z,69.61
2023-02-19T20:17:12.741Z,69.52
2023-02-19T20:19:39.293Z,69.55
2023-02-19T20:22:06.047Z,69.75
2023-02-19T20:24:32.836Z,69.75
2023-02-19T20:27:02.051Z,69.41
2023-02-19T20:29:30.764Z,69.68
2023-02-19T20:32:02.406Z,69.70
2023-02-19T20:34:29.960Z,69.44
2023-02-19T20:36:56.959Z,69.31
2023-02-19T20:39:28.716Z,69.33
2023-02-19T20:41:56.138Z,69.36
2023-02-19T20:44:22.701Z,69.35
2023-02-19T20:46:53.515Z,69.36
2023-02-19T20:49:22.406Z,69.24
2023-02-19T20:51:54.835Z,69.06
2023-02-19T20:54:25.548Z,69.33
2023-02-19T20:56:55.997Z,69.09
2023-02-19T20:59:30.946Z,69.33
2023-02-19T21:02:01.919Z,69.20
2023-02-19T21:04:28.794Z,69.07
2023-02-19T21:06:55.424Z,69.15
2023-02-19T21:09:23.025Z,68.97
2023-02-19T21:11:50.455Z,69.01
2023-02-19T21:14:17.828Z,69.08
2023-02-19T21:16:44.877Z,69.15
2023-02-19T21:19:12.963Z,69.23
2023-02-19T21:21:40.365Z,69.41
2023-02-19T21:24:07.563Z,69.47
2023-02-19T21:26:36.285Z,69.54
2023-02-19T21:29:04.204Z,69.66
2023-02-19T21:31:42.445Z,69.60
2023-02-19T21:34:11.283Z,69.54
2023-02-19T21:36:38.003Z,69.50
2023-02-19T21:39:06.321Z,69.37
2023-02-19T21:41:33.175Z,69.47
2023-02-19T21:43:59.927Z,69.52
2023-02-19T21:46:27.061Z,69.54
2023-02-19T21:48:55.634Z,69.47
2023-02-19T21:51:28.706Z,69.62
2023-02-19T21:53:55.241Z,69.61
2023-02-19T21:56:27.618Z,69.66
2023-02-19T21:58:54.431Z,69.65
2023-02-19T22:01:22.841Z,69.65
2023-02-19T22:03:49.459Z,69.61
2023-02-19T22:06:16.318Z,69.77
2023-02-19T22:08:43.821Z,69.70
2023-02-19T22:11:10.477Z,69.73
2023-02-19T22:13:37.064Z,69.63
2023-02-19T22:16:07.520Z,69.53
2023-02-19T22:18:37.721Z,69.47
2023-02-19T22:21:05.351Z,69.13
2023-02-19T22:23:32.036Z,69.10
2023-02-19T22:25:58.666Z,68.83
2023-02-19T22:28:25.204Z,69.01
2023-02-19T22:30:51.749Z,68.83
2023-02-19T22:33:18.300Z,68.67
2023-02-19T22:35:44.894Z,68.64
2023-02-19T22:38:11.720Z,68.45
2023-02-19T22:40:38.284Z,68.53
2023-02-19T22:43:04.860Z,68.50
2023-02-19T22:45:31.505Z,68.78
2023-02-19T22:47:58.081Z,68.59
2023-02-19T22:50:26.451Z,68.71
2023-02-19T22:52:55.117Z,68.77
2023-02-19T22:55:22.165Z,68.51
2023-02-19T22:57:48.830Z,68.50
2023-02-19T23:00:20.961Z,68.23
2023-02-19T23:02:48.524Z,68.46
2023-02-19T23:05:16.140Z,68.45
2023-02-19T23:07:46.583Z,68.32
2023-02-19T23:10:13.509Z,68.45
2023-02-19T23:12:40.649Z,68.35
2023-02-19T23:15:08.983Z,68.31
2023-02-19T23:17:35.727Z,68.17
2023-02-19T23:20:02.594Z,68.13
2023-02-19T23:22:29.229Z,68.42
2023-02-19T23:24:55.880Z,68.22
2023-02-19T23:27:24.317Z,68.36
2023-02-19T23:29:50.948Z,68.22
2023-02-19T23:32:21.004Z,68.14
2023-02-19T23:34:48.330Z,68.12
2023-02-19T23:37:15.048Z,68.00
2023-02-19T23:39:41.631Z,68.15
2023-02-19T23:42:12.708Z,67.93
2023-02-19T23:44:39.288Z,68.13
2023-02-19T23:47:05.843Z,68.00
2023-02-19T23:49:32.390Z,67.80
2023-02-19T23:51:58.957Z,67.91
2023-02-19T23:54:25.518Z,67.97
2023-02-19T23:56:52.102Z,67.74
2023-02-19T23:59:19.845Z,67.85
